createdAt,value
2018-05-26T00:01:52.609Z,11.47
2018-05-26T00:04:18.408Z,11.90
2018-05-26T00:06:44.157Z,11.87
2018-05-26T00:09:10.333Z,11.47
2018-05-26T00:11:36.092Z,12.70
2018-05-26T00:14:01.837Z,12.67
2018-05-26T00:16:27.601Z,13.07
2018-05-26T00:18:53.753Z,14.17
2018-05-26T00:21:19.499Z,13.50
2018-05-26T00:23:45.223Z,13.00
2018-05-26T00:26:11.919Z,14.37
2018-05-26T00:28:38.120Z,14.67
2018-05-26T00:31:04.371Z,15.80
2018-05-26T00:33:30.122Z,15.47
2018-05-26T00:35:56.652Z,16.77
2018-05-26T00:38:22.399Z,15.97
2018-05-26T00:40:48.224Z,16.70
2018-05-26T00:43:13.951Z,16.13
2018-05-26T00:45:39.913Z,13.83
2018-05-26T00:48:05.649Z,15.20
2018-05-26T00:50:31.380Z,11.80
2018-05-26T00:52:57.116Z,15.57
2018-05-26T00:55:22.851Z,16.43
2018-05-26T00:57:48.576Z,17.17
2018-05-26T01:00:14.493Z,16.97
2018-05-26T01:02:40.236Z,17.33
2018-05-26T01:05:05.967Z,17.10
2018-05-26T01:07:32.413Z,19.10
2018-05-26T01:09:58.152Z,18.33
2018-05-26T01:12:23.886Z,19.03
2018-05-26T01:14:49.691Z,20.73
2018-05-26T01:17:15.440Z,20.30
2018-05-26T01:19:41.177Z,21.23
2018-05-26T01:22:06.929Z,23.47
2018-05-26T01:24:32.665Z,21.97
2018-05-26T01:26:58.399Z,24.67
2018-05-26T01:29:24.679Z,25.80
2018-05-26T01:31:50.448Z,27.50
2018-05-26T01:34:16.603Z,27.10
2018-05-26T01:36:42.890Z,28.30
2018-05-26T01:39:08.648Z,28.03
2018-05-26T01:41:34.398Z,30.17
2018-05-26T01:44:00.134Z,29.20
2018-05-26T01:46:25.868Z,30.13
2018-05-26T01:48:51.612Z,30.97
2018-05-26T01:51:17.360Z,31.43
2018-05-26T01:53:43.542Z,32.03
2018-05-26T01:56:09.329Z,31.23
2018-05-26T01:58:35.073Z,28.47
2018-05-26T02:01:00.808Z,29.77
2018-05-26T02:03:26.566Z,28.17
2018-05-26T02:05:52.301Z,23.67
2018-05-26T02:08:18.032Z,29.47
2018-05-26T02:10:44.341Z,32.33
2018-05-26T02:13:10.540Z,35.90
2018-05-26T02:15:36.825Z,38.17
2018-05-26T02:18:03.948Z,42.37
2018-05-26T02:20:29.697Z,40.53
2018-05-26T02:22:55.434Z,36.60
2018-05-26T02:25:21.377Z,43.70
2018-05-26T02:27:47.122Z,41.23
2018-05-26T02:30:12.865Z,36.23
2018-05-26T02:32:38.597Z,47.00
2018-05-26T02:35:04.321Z,43.47
2018-05-26T02:37:30.174Z,37.97
2018-05-26T02:39:56.100Z,46.97
2018-05-26T02:42:21.843Z,41.73
2018-05-26T02:44:48.100Z,42.23
2018-05-26T02:47:13.868Z,40.00
2018-05-26T02:49:39.608Z,38.60
2018-05-26T02:52:05.357Z,38.47
2018-05-26T02:54:31.520Z,34.03
2018-05-26T02:56:57.497Z,38.30
2018-05-26T02:59:23.225Z,37.37
2018-05-26T03:01:48.956Z,37.27
2018-05-26T03:04:22.876Z,35.93
2018-05-26T03:06:54.736Z,36.73
2018-05-26T03:09:26.753Z,36.93
2018-05-26T03:11:58.740Z,38.80
2018-05-26T03:14:30.543Z,39.37
2018-05-26T03:16:57.104Z,34.60
2018-05-26T03:19:22.847Z,34.33
2018-05-26T03:21:48.572Z,35.73
2018-05-26T03:24:14.320Z,33.97
2018-05-26T03:26:40.067Z,36.90
2018-05-26T03:29:05.792Z,33.70
2018-05-26T03:31:31.525Z,36.00
2018-05-26T03:33:57.255Z,33.87
2018-05-26T03:36:23.020Z,39.53
2018-05-26T03:38:48.723Z,41.30
2018-05-26T03:41:14.459Z,37.17
2018-05-26T03:43:40.198Z,36.30
2018-05-26T03:46:05.940Z,36.43
2018-05-26T03:48:31.680Z,37.70
2018-05-26T03:50:57.403Z,33.80
2018-05-26T03:53:23.138Z,36.23
2018-05-26T03:56:01.288Z,33.73
2018-05-26T03:58:39.607Z,35.57
2018-05-26T04:01:05.356Z,35.10
2018-05-26T04:03:31.101Z,38.67
2018-05-26T04:05:56.876Z,36.97
2018-05-26T04:08:22.564Z,36.60
2018-05-26T04:10:48.292Z,35.27
2018-05-26T04:13:14.026Z,31.37
2018-05-26T04:15:39.765Z,32.33
2018-05-26T04:18:05.539Z,33.60
2018-05-26T04:20:31.318Z,30.30
2018-05-26T04:22:57.049Z,31.33
2018-05-26T04:25:22.812Z,29.00
2018-05-26T04:27:48.550Z,31.70
2018-05-26T04:30:14.291Z,29.20
2018-05-26T04:32:40.031Z,29.60
2018-05-26T04:35:05.784Z,27.97
2018-05-26T04:37:31.514Z,29.13
2018-05-26T04:39:57.260Z,27.90
2018-05-26T04:42:23.016Z,26.13
2018-05-26T04:44:48.777Z,27.00
2018-05-26T04:47:14.512Z,25.77
2018-05-26T04:49:40.260Z,25.03
2018-05-26T04:52:05.996Z,24.53
2018-05-26T04:54:31.736Z,24.73
2018-05-26T04:56:57.472Z,23.17
2018-05-26T04:59:23.215Z,23.03
2018-05-26T05:01:48.964Z,21.03
2018-05-26T05:04:14.721Z,21.23
2018-05-26T05:06:40.472Z,20.50
2018-05-26T05:09:06.222Z,20.20
2018-05-26T05:11:31.983Z,19.33
2018-05-26T05:13:57.738Z,20.47
2018-05-26T05:16:23.483Z,19.37
2018-05-26T05:18:49.246Z,19.43
2018-05-26T05:21:14.990Z,18.80
2018-05-26T05:23:47.719Z,18.20
2018-05-26T05:26:13.472Z,18.37
2018-05-26T05:28:39.217Z,17.27
2018-05-26T05:31:04.951Z,17.73
2018-05-26T05:33:30.698Z,18.20
2018-05-26T05:35:56.432Z,17.37
2018-05-26T05:38:22.184Z,16.73
2018-05-26T05:40:47.927Z,16.80
2018-05-26T05:43:13.681Z,17.03
2018-05-26T05:45:39.437Z,15.97
2018-05-26T05:48:05.172Z,17.33
2018-05-26T05:50:30.932Z,15.57
2018-05-26T05:52:56.659Z,15.80
2018-05-26T05:55:22.408Z,15.17
2018-05-26T05:57:48.163Z,15.33
2018-05-26T06:00:13.923Z,15.67
2018-05-26T06:02:39.665Z,15.40
2018-05-26T06:05:05.420Z,14.17
2018-05-26T06:07:31.176Z,14.30
2018-05-26T06:09:56.919Z,14.30
2018-05-26T06:12:22.644Z,13.70
2018-05-26T06:14:48.389Z,12.80
2018-05-26T06:17:14.146Z,13.27
2018-05-26T06:19:39.888Z,13.43
2018-05-26T06:22:05.619Z,13.63
2018-05-26T06:24:31.364Z,12.73
2018-05-26T06:26:57.093Z,12.80
2018-05-26T06:29:22.828Z,12.90
2018-05-26T06:31:48.576Z,12.47
2018-05-26T06:34:14.287Z,12.20
2018-05-26T06:36:40.036Z,12.33
2018-05-26T06:39:05.777Z,12.13
2018-05-26T06:41:31.512Z,10.30
2018-05-26T06:43:57.252Z,10.00
2018-05-26T06:46:23.000Z,9.37
2018-05-26T06:48:48.727Z,10.33
2018-05-26T06:51:14.531Z,10.77
2018-05-26T06:53:40.200Z,10.80
2018-05-26T06:56:05.932Z,9.50
2018-05-26T06:58:31.664Z,10.10
2018-05-26T07:00:57.412Z,10.33
2018-05-26T07:03:23.135Z,9.80
2018-05-26T07:05:48.898Z,9.40
2018-05-26T07:08:14.639Z,10.23
2018-05-26T07:10:40.390Z,8.87
2018-05-26T07:13:06.121Z,8.40
2018-05-26T07:15:31.866Z,8.73
2018-05-26T07:17:57.601Z,8.17
2018-05-26T07:20:23.350Z,8.13
2018-05-26T07:22:49.081Z,8.30
2018-05-26T07:25:14.833Z,8.57
2018-05-26T07:27:40.559Z,7.90
2018-05-26T07:30:06.307Z,8.07
2018-05-26T07:32:32.036Z,6.63
2018-05-26T07:34:57.772Z,7.80
2018-05-26T07:37:23.524Z,6.97
2018-05-26T07:39:49.268Z,6.40
2018-05-26T07:42:14.997Z,6.37
2018-05-26T07:44:40.737Z,6.20
2018-05-26T07:47:06.480Z,6.70
2018-05-26T07:49:32.217Z,6.70
2018-05-26T07:51:57.955Z,6.43
2018-05-26T07:54:23.690Z,6.67
2018-05-26T07:56:49.436Z,6.10
2018-05-26T07:59:15.158Z,6.13
2018-05-26T08:01:40.920Z,5.60
2018-05-26T08:04:06.656Z,5.23
2018-05-26T08:06:32.396Z,5.33
2018-05-26T08:08:58.133Z,5.20
2018-05-26T08:11:23.879Z,5.40
2018-05-26T08:13:49.640Z,5.20
2018-05-26T08:16:15.389Z,5.10
2018-05-26T08:18:41.136Z,5.77
2018-05-26T08:21:06.880Z,6.27
2018-05-26T08:23:32.617Z,5.43
2018-05-26T08:25:58.368Z,5.63
2018-05-26T08:28:24.120Z,5.20
2018-05-26T08:30:49.881Z,5.67
2018-05-26T08:33:15.609Z,5.30
2018-05-26T08:35:41.352Z,5.07
2018-05-26T08:38:07.084Z,5.43
2018-05-26T08:40:32.830Z,4.33
2018-05-26T08:42:58.571Z,4.30
2018-05-26T08:45:24.319Z,4.73
2018-05-26T08:47:50.073Z,5.17
2018-05-26T08:50:15.800Z,5.10
2018-05-26T08:55:14.153Z,5.30
2018-05-26T08:57:39.900Z,4.97
2018-05-26T09:02:38.014Z,5.80
2018-05-26T09:05:03.746Z,5.40
2018-05-26T09:07:29.485Z,4.87
2018-05-26T09:09:55.213Z,4.80
2018-05-26T09:12:21.798Z,5.20
2018-05-26T09:14:47.540Z,4.63
2018-05-26T09:17:13.313Z,4.97
2018-05-26T09:19:39.056Z,4.43
2018-05-26T09:22:04.812Z,3.83
2018-05-26T09:24:30.562Z,4.13
2018-05-26T09:26:56.319Z,4.00
2018-05-26T09:29:22.096Z,3.90
2018-05-26T09:31:47.856Z,3.87
2018-05-26T09:34:13.603Z,3.43
2018-05-26T09:36:39.352Z,4.00
2018-05-26T09:39:05.112Z,3.63
2018-05-26T09:41:30.852Z,3.40
2018-05-26T09:43:56.609Z,3.30
2018-05-26T09:46:22.368Z,2.93
2018-05-26T09:48:48.114Z,3.40
2018-05-26T09:51:13.861Z,3.53
2018-05-26T09:53:39.605Z,3.80
2018-05-26T09:56:05.381Z,3.37
2018-05-26T09:58:31.108Z,3.50
2018-05-26T10:00:56.856Z,4.30
2018-05-26T10:03:22.601Z,3.80
2018-05-26T10:05:48.352Z,3.63
2018-05-26T10:08:14.104Z,3.60
2018-05-26T10:10:39.892Z,3.50
2018-05-26T10:13:05.636Z,3.50
2018-05-26T10:15:31.389Z,3.30
2018-05-26T10:17:57.149Z,3.40
2018-05-26T10:20:22.900Z,3.10
2018-05-26T10:22:48.650Z,3.33
2018-05-26T10:25:14.403Z,3.63
2018-05-26T10:27:40.166Z,3.97
2018-05-26T10:30:05.928Z,3.67
2018-05-26T10:32:31.668Z,3.60
2018-05-26T10:34:57.420Z,3.70
2018-05-26T10:37:23.163Z,3.40
2018-05-26T10:39:48.923Z,3.43
2018-05-26T10:42:14.737Z,3.30
2018-05-26T10:44:40.472Z,3.60
2018-05-26T10:47:06.217Z,3.10
2018-05-26T10:49:31.973Z,3.70
2018-05-26T10:51:57.724Z,3.50
2018-05-26T10:54:23.469Z,3.40
2018-05-26T10:56:49.241Z,3.40
2018-05-26T10:59:14.992Z,3.77
2018-05-26T11:01:40.776Z,3.63
2018-05-26T11:04:06.571Z,3.67
2018-05-26T11:06:45.387Z,3.57
2018-05-26T11:09:11.123Z,3.97
2018-05-26T11:11:36.874Z,3.40
2018-05-26T11:14:02.632Z,3.47
2018-05-26T11:16:28.399Z,3.57
2018-05-26T11:18:54.193Z,3.43
2018-05-26T11:21:19.908Z,3.30
2018-05-26T11:23:45.664Z,3.40
2018-05-26T11:26:11.430Z,3.90
2018-05-26T11:28:37.167Z,3.70
2018-05-26T11:31:02.955Z,3.70
2018-05-26T11:33:28.697Z,3.57
2018-05-26T11:35:54.440Z,3.70
2018-05-26T11:38:20.191Z,3.70
2018-05-26T11:40:45.945Z,3.60
2018-05-26T11:43:12.218Z,3.37
2018-05-26T11:45:37.968Z,3.40
2018-05-26T11:48:03.728Z,4.00
2018-05-26T11:50:29.999Z,3.50
2018-05-26T11:52:55.758Z,3.60
2018-05-26T11:55:21.500Z,3.60
2018-05-26T11:57:47.246Z,3.30
2018-05-26T12:00:13.001Z,3.60
2018-05-26T12:02:38.756Z,3.70
2018-05-26T12:05:04.512Z,3.67
2018-05-26T12:07:30.264Z,3.90
2018-05-26T12:09:56.004Z,3.80
2018-05-26T12:12:21.759Z,3.70
2018-05-26T12:14:47.504Z,3.53
2018-05-26T12:17:13.268Z,3.63
2018-05-26T12:19:39.037Z,3.57
2018-05-26T12:22:04.776Z,3.30
2018-05-26T12:24:30.532Z,2.87
2018-05-26T12:26:56.359Z,3.00
2018-05-26T12:29:22.055Z,3.17
2018-05-26T12:31:47.799Z,2.60
2018-05-26T12:34:13.543Z,2.70
2018-05-26T12:36:39.297Z,2.33
2018-05-26T12:39:05.054Z,2.23
2018-05-26T12:41:30.797Z,2.30
2018-05-26T12:43:56.555Z,2.30
2018-05-26T12:46:22.306Z,2.10
2018-05-26T12:48:48.076Z,2.30
2018-05-26T12:51:13.821Z,2.27
2018-05-26T12:53:39.596Z,2.40
2018-05-26T12:56:05.497Z,2.17
2018-05-26T12:58:31.277Z,1.73
2018-05-26T13:00:57.132Z,2.03
2018-05-26T13:03:23.172Z,2.30
2018-05-26T13:05:48.918Z,2.20
2018-05-26T13:08:14.678Z,2.53
2018-05-26T13:10:40.439Z,2.20
2018-05-26T13:13:06.203Z,2.60
2018-05-26T13:15:31.956Z,2.40
2018-05-26T13:17:57.724Z,2.40
2018-05-26T13:20:23.464Z,2.20
2018-05-26T13:22:49.199Z,2.27
2018-05-26T13:25:14.933Z,2.50
2018-05-26T13:27:40.730Z,2.47
2018-05-26T13:30:06.471Z,2.30
2018-05-26T13:32:32.215Z,2.30
2018-05-26T13:34:57.955Z,2.60
2018-05-26T13:37:23.677Z,2.77
2018-05-26T13:39:49.419Z,2.30
2018-05-26T13:42:15.158Z,2.27
2018-05-26T13:44:40.889Z,2.33
2018-05-26T13:47:06.624Z,2.20
2018-05-26T13:49:32.381Z,2.60
2018-05-26T13:51:58.176Z,2.77
2018-05-26T13:54:23.866Z,2.33
2018-05-26T13:56:49.695Z,2.60
2018-05-26T13:59:15.432Z,1.80
2018-05-26T14:01:41.161Z,2.40
2018-05-26T14:04:06.902Z,2.10
2018-05-26T14:06:32.656Z,2.40
2018-05-26T14:08:58.404Z,2.60
2018-05-26T14:11:24.145Z,2.23
2018-05-26T14:13:49.884Z,2.37
2018-05-26T14:16:15.635Z,2.63
2018-05-26T14:18:41.396Z,2.40
2018-05-26T14:21:07.150Z,2.53
2018-05-26T14:23:32.908Z,2.47
2018-05-26T14:25:58.647Z,2.70
2018-05-26T14:28:24.388Z,2.63
2018-05-26T14:30:51.296Z,2.40
2018-05-26T14:33:17.044Z,2.70
2018-05-26T14:35:42.800Z,2.60
2018-05-26T14:38:08.533Z,2.60
2018-05-26T14:40:34.281Z,2.90
2018-05-26T14:43:00.014Z,2.67
2018-05-26T14:45:25.766Z,2.50
2018-05-26T14:47:51.511Z,2.50
2018-05-26T14:50:17.266Z,2.50
2018-05-26T14:52:43.016Z,2.23
2018-05-26T14:55:08.776Z,2.90
2018-05-26T14:57:34.501Z,2.70
2018-05-26T15:00:00.245Z,2.77
2018-05-26T15:02:26.003Z,2.50
2018-05-26T15:04:51.744Z,2.50
2018-05-26T15:07:17.497Z,2.30
2018-05-26T15:09:43.218Z,2.60
2018-05-26T15:12:08.956Z,2.90
2018-05-26T15:14:34.692Z,2.47
2018-05-26T15:17:00.436Z,3.00
2018-05-26T15:19:26.191Z,2.70
2018-05-26T15:21:51.932Z,2.90
2018-05-26T15:24:17.685Z,2.83
2018-05-26T15:26:43.497Z,3.00
2018-05-26T15:29:09.244Z,2.63
2018-05-26T15:31:34.989Z,2.83
2018-05-26T15:34:00.746Z,2.60
2018-05-26T15:36:26.517Z,2.60
2018-05-26T15:38:52.256Z,2.60
2018-05-26T15:41:18.024Z,2.90
2018-05-26T15:43:43.875Z,2.97
2018-05-26T15:46:09.626Z,3.00
2018-05-26T15:48:35.376Z,2.97
2018-05-26T15:51:01.120Z,3.10
2018-05-26T15:53:26.881Z,2.77
2018-05-26T15:55:52.648Z,2.90
2018-05-26T15:58:18.392Z,2.80
2018-05-26T16:00:44.149Z,3.23
2018-05-26T16:03:09.905Z,2.97
2018-05-26T16:05:35.696Z,3.13
2018-05-26T16:08:01.467Z,2.87
2018-05-26T16:10:27.567Z,2.33
2018-05-26T16:12:53.327Z,2.80
2018-05-26T16:15:19.090Z,3.33
2018-05-26T16:17:45.387Z,2.50
2018-05-26T16:20:11.802Z,3.13
2018-05-26T16:22:38.289Z,2.80
2018-05-26T16:25:05.141Z,2.80
2018-05-26T16:27:31.747Z,3.00
2018-05-26T16:29:58.293Z,3.10
2018-05-26T16:32:25.083Z,2.63
2018-05-26T16:34:50.837Z,2.80
2018-05-26T16:37:16.589Z,3.00
2018-05-26T16:39:42.315Z,3.20
2018-05-26T16:42:08.048Z,3.47
2018-05-26T16:44:35.209Z,3.00
2018-05-26T16:47:02.061Z,3.03
2018-05-26T16:49:28.531Z,3.50
2018-05-26T16:51:54.284Z,3.47
2018-05-26T16:54:20.045Z,2.87
2018-05-26T16:56:45.791Z,3.00
2018-05-26T16:59:11.532Z,3.07
2018-05-26T17:01:37.283Z,3.20
2018-05-26T17:04:03.023Z,3.63
2018-05-26T17:06:29.739Z,3.27
2018-05-26T17:08:56.899Z,3.80
2018-05-26T17:11:22.655Z,3.30
2018-05-26T17:13:48.391Z,3.20
2018-05-26T17:16:14.133Z,3.03
2018-05-26T17:18:39.880Z,3.70
2018-05-26T17:21:05.638Z,3.77
2018-05-26T17:23:31.381Z,3.67
2018-05-26T17:25:57.142Z,3.50
2018-05-26T17:28:22.875Z,3.43
2018-05-26T17:30:48.680Z,3.30
2018-05-26T17:33:14.386Z,3.17
2018-05-26T17:35:40.139Z,3.20
2018-05-26T17:38:05.891Z,3.23
2018-05-26T17:40:31.649Z,3.60
2018-05-26T17:42:57.385Z,3.27
2018-05-26T17:45:23.147Z,3.20
2018-05-26T17:47:48.892Z,3.10
2018-05-26T17:50:14.668Z,3.47
2018-05-26T17:52:40.399Z,3.20
2018-05-26T17:55:06.160Z,3.40
2018-05-26T17:57:31.928Z,3.50
2018-05-26T17:59:57.676Z,3.27
2018-05-26T18:02:23.431Z,3.23
2018-05-26T18:04:49.172Z,3.40
2018-05-26T18:07:14.920Z,3.53
2018-05-26T18:09:40.656Z,3.60
2018-05-26T18:12:06.418Z,4.10
2018-05-26T18:14:32.160Z,3.90
2018-05-26T18:16:57.902Z,3.87
2018-05-26T18:19:23.627Z,4.43
2018-05-26T18:21:49.361Z,4.00
2018-05-26T18:24:15.089Z,3.67
2018-05-26T18:26:40.842Z,3.87
2018-05-26T18:29:06.573Z,3.93
2018-05-26T18:31:32.329Z,4.17
2018-05-26T18:33:58.064Z,4.27
2018-05-26T18:36:23.807Z,4.20
2018-05-26T18:38:49.541Z,3.50
2018-05-26T18:41:15.275Z,3.97
2018-05-26T18:43:40.984Z,4.10
2018-05-26T18:46:06.712Z,4.13
2018-05-26T18:48:32.449Z,4.17
2018-05-26T18:50:58.186Z,4.03
2018-05-26T18:53:23.908Z,3.77
2018-05-26T18:55:49.657Z,3.97
2018-05-26T18:58:15.377Z,4.40
2018-05-26T19:00:41.104Z,3.70
2018-05-26T19:03:06.847Z,3.80
2018-05-26T19:05:32.563Z,3.80
2018-05-26T19:07:58.297Z,3.90
2018-05-26T19:10:24.034Z,3.80
2018-05-26T19:12:49.776Z,4.20
2018-05-26T19:15:15.505Z,4.10
2018-05-26T19:17:41.271Z,4.00
2018-05-26T19:20:07.005Z,3.43
2018-05-26T19:22:32.756Z,3.37
2018-05-26T19:24:58.488Z,3.97
2018-05-26T19:27:24.232Z,3.17
2018-05-26T19:29:49.987Z,3.30
2018-05-26T19:32:15.728Z,3.20
2018-05-26T19:34:41.463Z,3.30
2018-05-26T19:37:07.244Z,3.57
2018-05-26T19:39:32.961Z,2.63
2018-05-26T19:41:58.704Z,3.00
2018-05-26T19:44:24.437Z,2.80
2018-05-26T19:46:50.180Z,3.40
2018-05-26T19:49:15.913Z,3.27
2018-05-26T19:51:41.656Z,3.07
2018-05-26T19:54:07.395Z,3.20
2018-05-26T19:56:33.140Z,3.00
2018-05-26T19:58:58.876Z,3.50
2018-05-26T20:01:24.643Z,2.83
2018-05-26T20:03:50.377Z,2.97
2018-05-26T20:06:16.104Z,3.20
2018-05-26T20:08:41.858Z,2.87
2018-05-26T20:11:07.582Z,2.93
2018-05-26T20:13:33.336Z,3.30
2018-05-26T20:15:59.074Z,3.23
2018-05-26T20:18:24.823Z,3.10
2018-05-26T20:20:50.557Z,3.67
2018-05-26T20:23:16.296Z,3.20
2018-05-26T20:25:42.036Z,3.20
2018-05-26T20:28:07.792Z,3.50
2018-05-26T20:30:33.520Z,3.50
2018-05-26T20:32:59.273Z,3.63
2018-05-26T20:35:24.999Z,3.53
2018-05-26T20:37:50.748Z,3.60
2018-05-26T20:40:16.477Z,3.40
2018-05-26T20:42:42.232Z,3.67
2018-05-26T20:45:07.956Z,4.03
2018-05-26T20:47:33.700Z,3.57
2018-05-26T20:49:59.476Z,3.33
2018-05-26T20:52:25.179Z,3.40
2018-05-26T20:54:50.916Z,3.77
2018-05-26T20:57:16.664Z,3.70
2018-05-26T20:59:42.403Z,3.70
2018-05-26T21:02:08.136Z,3.57
2018-05-26T21:04:33.869Z,4.20
2018-05-26T21:06:59.627Z,3.90
2018-05-26T21:09:25.402Z,4.10
2018-05-26T21:11:51.112Z,3.73
2018-05-26T21:14:16.858Z,3.57
2018-05-26T21:16:42.596Z,3.83
2018-05-26T21:19:08.367Z,4.13
2018-05-26T21:21:34.099Z,3.80
2018-05-26T21:23:59.839Z,4.03
2018-05-26T21:26:25.576Z,3.83
2018-05-26T21:28:51.330Z,4.10
2018-05-26T21:31:17.070Z,4.07
2018-05-26T21:33:42.812Z,3.73
2018-05-26T21:36:08.546Z,4.23
2018-05-26T21:38:34.295Z,4.27
2018-05-26T21:41:00.089Z,4.10
2018-05-26T21:43:25.824Z,4.33
2018-05-26T21:45:51.553Z,4.77
2018-05-26T21:48:17.304Z,6.00
2018-05-26T21:50:43.032Z,6.20
2018-05-26T21:53:08.772Z,5.97
2018-05-26T21:55:34.508Z,5.53
2018-05-26T21:58:00.295Z,5.43
2018-05-26T22:00:25.998Z,5.57
2018-05-26T22:02:51.732Z,4.90
2018-05-26T22:05:17.460Z,5.03
2018-05-26T22:07:43.200Z,4.97
2018-05-26T22:10:08.936Z,5.27
2018-05-26T22:12:34.684Z,4.87
2018-05-26T22:15:00.411Z,5.33
2018-05-26T22:17:26.144Z,4.60
2018-05-26T22:19:51.884Z,4.73
2018-05-26T22:22:17.604Z,6.93
2018-05-26T22:24:43.344Z,8.67
2018-05-26T22:27:09.075Z,9.97
2018-05-26T22:29:34.800Z,7.87
2018-05-26T22:32:00.525Z,7.47
2018-05-26T22:34:26.264Z,6.73
2018-05-26T22:36:51.976Z,6.37
2018-05-26T22:39:17.712Z,5.60
2018-05-26T22:41:43.936Z,6.33
2018-05-26T22:44:09.821Z,6.50
2018-05-26T22:46:35.657Z,7.10
2018-05-26T22:49:01.393Z,7.77
2018-05-26T22:51:27.151Z,6.13
2018-05-26T22:53:52.964Z,5.87
2018-05-26T22:56:18.830Z,5.13
2018-05-26T22:58:44.571Z,5.23
2018-05-26T23:01:10.300Z,5.90
2018-05-26T23:03:36.040Z,5.80
2018-05-26T23:06:01.761Z,6.47
2018-05-26T23:08:27.525Z,6.30
2018-05-26T23:10:53.269Z,5.90
2018-05-26T23:13:19.005Z,6.17
2018-05-26T23:15:44.742Z,6.47
2018-05-26T23:18:10.472Z,6.80
2018-05-26T23:20:36.202Z,7.20
2018-05-26T23:23:01.933Z,7.17
2018-05-26T23:25:27.669Z,7.20
2018-05-26T23:27:53.463Z,7.17
2018-05-26T23:30:19.197Z,6.57
2018-05-26T23:32:44.960Z,6.53
2018-05-26T23:35:10.707Z,7.20
2018-05-26T23:37:36.424Z,7.20
2018-05-26T23:40:02.167Z,7.70
2018-05-26T23:42:27.895Z,7.83
2018-05-26T23:44:53.632Z,8.03
2018-05-26T23:47:19.362Z,7.93
2018-05-26T23:49:45.092Z,8.63
2018-05-26T23:52:10.825Z,8.33
2018-05-26T23:54:36.566Z,8.47
2018-05-26T23:57:02.323Z,9.67
2018-05-26T23:59:28.029Z,8.90
